sensor_id;sensor_type;location;lat;lon;timestamp;pressure;altitude;pressure_sealevel;temperature;humidity
41254;BME280;26987;59.928;30.306;2022-10-23T00:00:42;100721.84;;;4.48;96.95
41254;BME280;26987;59.928;30.306;2022-10-23T00:03:10;100709.06;;;4.43;97.73
41254;BME280;26987;59.928;30.306;2022-10-23T00:05:39;100706.91;;;4.38;97.34
41254;BME280;26987;59.928;30.306;2022-10-23T00:08:07;100702.28;;;4.32;98.17
41254;BME280;26987;59.928;30.306;2022-10-23T00:10:35;100706.56;;;4.25;98.90
41254;BME280;26987;59.928;30.306;2022-10-23T00:13:07;100707.09;;;4.20;98.85
41254;BME280;26987;59.928;30.306;2022-10-23T00:15:36;100704.94;;;4.15;99.92
41254;BME280;26987;59.928;30.306;2022-10-23T00:18:05;100692.47;;;4.08;100.00
41254;BME280;26987;59.928;30.306;2022-10-23T00:20:35;100703.75;;;4.10;100.00
41254;BME280;26987;59.928;30.306;2022-10-23T00:23:03;100705.59;;;4.09;100.00
41254;BME280;26987;59.928;30.306;2022-10-23T00:25:31;100699.78;;;4.14;100.00
41254;BME280;26987;59.928;30.306;2022-10-23T00:27:59;100691.31;;;4.19;100.00
41254;BME280;26987;59.928;30.306;2022-10-23T00:30:28;100691.31;;;4.27;100.00
41254;BME280;26987;59.928;30.306;2022-10-23T00:32:55;100698.63;;;4.33;99.83
41254;BME280;26987;59.928;30.306;2022-10-23T00:35:25;100698.59;;;4.41;98.93
41254;BME280;26987;59.928;30.306;2022-10-23T00:37:53;100690.97;;;4.47;99.14
41254;BME280;26987;59.928;30.306;2022-10-23T00:40:20;100683.50;;;4.50;98.76
41254;BME280;26987;59.928;30.306;2022-10-23T00:42:48;100686.97;;;4.51;98.45
41254;BME280;26987;59.928;30.306;2022-10-23T00:45:20;100681.50;;;4.52;98.34
41254;BME280;26987;59.928;30.306;2022-10-23T00:47:49;100682.50;;;4.51;97.84
41254;BME280;26987;59.928;30.306;2022-10-23T00:50:17;100682.69;;;4.50;97.25
41254;BME280;26987;59.928;30.306;2022-10-23T00:52:48;100679.00;;;4.51;97.27
41254;BME280;26987;59.928;30.306;2022-10-23T00:55:18;100673.69;;;4.51;97.26
41254;BME280;26987;59.928;30.306;2022-10-23T00:57:49;100662.06;;;4.52;97.54
41254;BME280;26987;59.928;30.306;2022-10-23T01:00:19;100656.94;;;4.50;96.98
41254;BME280;26987;59.928;30.306;2022-10-23T01:02:48;100662.06;;;4.52;96.88
41254;BME280;26987;59.928;30.306;2022-10-23T01:05:16;100655.78;;;4.53;96.85
41254;BME280;26987;59.928;30.306;2022-10-23T01:07:50;100652.47;;;4.51;97.07
41254;BME280;26987;59.928;30.306;2022-10-23T01:10:25;100649.50;;;4.46;97.13
41254;BME280;26987;59.928;30.306;2022-10-23T01:13:01;100659.44;;;4.44;97.45
41254;BME280;26987;59.928;30.306;2022-10-23T01:15:36;100649.16;;;4.40;97.50
41254;BME280;26987;59.928;30.306;2022-10-23T01:18:09;100648.81;;;4.44;96.66
41254;BME280;26987;59.928;30.306;2022-10-23T01:20:49;100644.53;;;4.43;97.60
41254;BME280;26987;59.928;30.306;2022-10-23T01:23:36;100642.00;;;4.49;96.60
41254;BME280;26987;59.928;30.306;2022-10-23T01:26:26;100630.22;;;4.52;97.24
41254;BME280;26987;59.928;30.306;2022-10-23T01:29:02;100628.72;;;4.49;96.01
41254;BME280;26987;59.928;30.306;2022-10-23T01:31:35;100624.44;;;4.48;96.39
41254;BME280;26987;59.928;30.306;2022-10-23T01:34:07;100630.56;;;4.49;95.92
41254;BME280;26987;59.928;30.306;2022-10-23T01:36:43;100634.03;;;4.49;96.58
41254;BME280;26987;59.928;30.306;2022-10-23T01:39:17;100628.56;;;4.51;96.89
41254;BME280;26987;59.928;30.306;2022-10-23T01:41:50;100615.28;;;4.51;96.27
41254;BME280;26987;59.928;30.306;2022-10-23T01:44:29;100626.75;;;4.51;95.89
41254;BME280;26987;59.928;30.306;2022-10-23T01:47:03;100604.66;;;4.51;96.21
41254;BME280;26987;59.928;30.306;2022-10-23T01:49:37;100617.09;;;4.50;95.99
41254;BME280;26987;59.928;30.306;2022-10-23T01:52:10;100607.66;;;4.48;95.98
41254;BME280;26987;59.928;30.306;2022-10-23T01:54:44;100589.59;;;4.35;96.04
41254;BME280;26987;59.928;30.306;2022-10-23T01:57:15;100609.66;;;4.46;96.32
41254;BME280;26987;59.928;30.306;2022-10-23T01:59:49;100613.63;;;4.41;96.32
41254;BME280;26987;59.928;30.306;2022-10-23T02:02:19;100609.00;;;4.35;96.36
41254;BME280;26987;59.928;30.306;2022-10-23T02:04:54;100613.00;;;4.39;96.57
41254;BME280;26987;59.928;30.306;2022-10-23T02:07:23;100616.97;;;4.35;96.01
41254;BME280;26987;59.928;30.306;2022-10-23T02:09:51;100608.34;;;4.33;96.52
41254;BME280;26987;59.928;30.306;2022-10-23T02:12:26;100617.28;;;4.40;95.70
41254;BME280;26987;59.928;30.306;2022-10-23T02:15:01;100618.94;;;4.41;96.06
41254;BME280;26987;59.928;30.306;2022-10-23T02:17:43;100613.31;;;4.45;95.97
41254;BME280;26987;59.928;30.306;2022-10-23T02:20:19;100596.06;;;4.40;95.14
41254;BME280;26987;59.928;30.306;2022-10-23T02:22:51;100612.09;;;4.64;95.99
41254;BME280;26987;59.928;30.306;2022-10-23T02:25:27;100612.28;;;4.54;94.62
41254;BME280;26987;59.928;30.306;2022-10-23T02:27:58;100608.31;;;4.50;94.50
41254;BME280;26987;59.928;30.306;2022-10-23T02:30:39;100596.69;;;4.51;95.55
41254;BME280;26987;59.928;30.306;2022-10-23T02:33:12;100602.00;;;4.51;95.01
41254;BME280;26987;59.928;30.306;2022-10-23T02:35:41;100599.38;;;4.43;95.37
41254;BME280;26987;59.928;30.306;2022-10-23T02:38:32;100576.00;;;4.29;95.07
41254;BME280;26987;59.928;30.306;2022-10-23T02:41:09;100601.00;;;4.52;94.97
41254;BME280;26987;59.928;30.306;2022-10-23T02:43:44;100593.41;;;4.49;95.29
41254;BME280;26987;59.928;30.306;2022-10-23T02:46:22;100590.75;;;4.49;95.07
41254;BME280;26987;59.928;30.306;2022-10-23T02:48:59;100587.09;;;4.50;95.85
41254;BME280;26987;59.928;30.306;2022-10-23T02:51:44;100587.56;;;4.53;94.77
41254;BME280;26987;59.928;30.306;2022-10-23T02:54:31;100580.44;;;4.54;95.26
41254;BME280;26987;59.928;30.306;2022-10-23T02:57:09;100585.56;;;4.56;95.30
41254;BME280;26987;59.928;30.306;2022-10-23T02:59:43;100578.78;;;4.53;95.29
41254;BME280;26987;59.928;30.306;2022-10-23T03:02:17;100577.59;;;4.56;95.12
41254;BME280;26987;59.928;30.306;2022-10-23T03:04:49;100579.75;;;4.52;95.15
41254;BME280;26987;59.928;30.306;2022-10-23T03:07:19;100575.28;;;4.52;95.02
41254;BME280;26987;59.928;30.306;2022-10-23T03:09:47;100581.59;;;4.51;95.13
41254;BME280;26987;59.928;30.306;2022-10-23T03:12:15;100574.44;;;4.52;94.29
41254;BME280;26987;59.928;30.306;2022-10-23T03:14:43;100569.13;;;4.52;94.68
41254;BME280;26987;59.928;30.306;2022-10-23T03:17:11;100571.44;;;4.55;95.05
41254;BME280;26987;59.928;30.306;2022-10-23T03:19:40;100562.50;;;4.56;95.31
41254;BME280;26987;59.928;30.306;2022-10-23T03:22:09;100562.16;;;4.59;94.93
41254;BME280;26987;59.928;30.306;2022-10-23T03:24:37;100559.69;;;4.58;94.80
41254;BME280;26987;59.928;30.306;2022-10-23T03:27:05;100558.00;;;4.57;94.95
41254;BME280;26987;59.928;30.306;2022-10-23T03:29:32;100553.88;;;4.54;95.22
41254;BME280;26987;59.928;30.306;2022-10-23T03:32:00;100550.53;;;4.52;94.99
41254;BME280;26987;59.928;30.306;2022-10-23T03:34:28;100546.25;;;4.51;94.75
41254;BME280;26987;59.928;30.306;2022-10-23T03:36:58;100548.06;;;4.50;94.59
41254;BME280;26987;59.928;30.306;2022-10-23T03:39:26;100545.78;;;4.47;95.49
41254;BME280;26987;59.928;30.306;2022-10-23T03:41:54;100542.44;;;4.45;95.26
41254;BME280;26987;59.928;30.306;2022-10-23T03:44:22;100545.09;;;4.45;95.11
41254;BME280;26987;59.928;30.306;2022-10-23T03:46:50;100543.28;;;4.46;95.20
41254;BME280;26987;59.928;30.306;2022-10-23T03:49:18;100541.44;;;4.46;95.26
41254;BME280;26987;59.928;30.306;2022-10-23T03:51:46;100539.63;;;4.47;95.45
41254;BME280;26987;59.928;30.306;2022-10-23T03:54:20;100540.28;;;4.49;96.42
41254;BME280;26987;59.928;30.306;2022-10-23T03:56:48;100539.13;;;4.51;95.12
41254;BME280;26987;59.928;30.306;2022-10-23T03:59:17;100529.00;;;4.47;95.50
41254;BME280;26987;59.928;30.306;2022-10-23T04:01:45;100534.59;;;4.52;95.48
41254;BME280;26987;59.928;30.306;2022-10-23T04:04:13;100538.94;;;4.53;95.30
41254;BME280;26987;59.928;30.306;2022-10-23T04:06:43;100537.44;;;4.50;94.46
41254;BME280;26987;59.928;30.306;2022-10-23T04:09:11;100541.94;;;4.50;95.78
41254;BME280;26987;59.928;30.306;2022-10-23T04:11:40;100535.63;;;4.51;95.53
41254;BME280;26987;59.928;30.306;2022-10-23T04:14:10;100533.31;;;4.48;95.20
41254;BME280;26987;59.928;30.306;2022-10-23T04:16:39;100530.81;;;4.46;95.61
41254;BME280;26987;59.928;30.306;2022-10-23T04:19:07;100528.00;;;4.48;95.55
41254;BME280;26987;59.928;30.306;2022-10-23T04:21:35;100530.66;;;4.48;95.40
41254;BME280;26987;59.928;30.306;2022-10-23T04:24:04;100526.00;;;4.50;95.97
41254;BME280;26987;59.928;30.306;2022-10-23T04:26:33;100528.84;;;4.48;95.42
41254;BME280;26987;59.928;30.306;2022-10-23T04:29:04;100528.16;;;4.46;95.09
41254;BME280;26987;59.928;30.306;2022-10-23T04:31:32;100527.00;;;4.49;95.31
41254;BME280;26987;59.928;30.306;2022-10-23T04:34:00;100531.81;;;4.45;95.45
41254;BME280;26987;59.928;30.306;2022-10-23T04:36:31;100517.59;;;4.38;95.11
41254;BME280;26987;59.928;30.306;2022-10-23T04:39:12;100527.03;;;4.40;95.70
41254;BME280;26987;59.928;30.306;2022-10-23T04:41:44;100524.72;;;4.37;95.33
41254;BME280;26987;59.928;30.306;2022-10-23T04:44:14;100521.22;;;4.37;95.91
41254;BME280;26987;59.928;30.306;2022-10-23T04:46:42;100526.53;;;4.37;95.98
41254;BME280;26987;59.928;30.306;2022-10-23T04:49:10;100528.22;;;4.38;95.65
41254;BME280;26987;59.928;30.306;2022-10-23T04:51:50;100531.66;;;4.38;96.02
41254;BME280;26987;59.928;30.306;2022-10-23T04:54:36;100536.00;;;4.39;95.74
41254;BME280;26987;59.928;30.306;2022-10-23T04:57:22;100537.81;;;4.47;95.53
41254;BME280;26987;59.928;30.306;2022-10-23T05:00:03;100535.16;;;4.47;95.89
41254;BME280;26987;59.928;30.306;2022-10-23T05:02:39;100536.47;;;4.43;95.63
41254;BME280;26987;59.928;30.306;2022-10-23T05:05:07;100541.44;;;4.46;95.88
41254;BME280;26987;59.928;30.306;2022-10-23T05:07:36;100532.31;;;4.49;95.93
41254;BME280;26987;59.928;30.306;2022-10-23T05:10:18;100531.16;;;4.51;95.99
41254;BME280;26987;59.928;30.306;2022-10-23T05:13:09;100530.97;;;4.53;95.19
41254;BME280;26987;59.928;30.306;2022-10-23T05:15:41;100530.13;;;4.52;95.41
41254;BME280;26987;59.928;30.306;2022-10-23T05:18:12;100532.44;;;4.56;95.61
41254;BME280;26987;59.928;30.306;2022-10-23T05:20:43;100526.97;;;4.57;94.83
41254;BME280;26987;59.928;30.306;2022-10-23T05:23:14;100527.47;;;4.61;94.67
41254;BME280;26987;59.928;30.306;2022-10-23T05:26:02;100526.13;;;4.65;95.42
41254;BME280;26987;59.928;30.306;2022-10-23T05:28:31;100520.97;;;4.63;95.27
41254;BME280;26987;59.928;30.306;2022-10-23T05:31:02;100519.09;;;4.72;94.84
41254;BME280;26987;59.928;30.306;2022-10-23T05:33:34;100513.78;;;4.72;94.42
41254;BME280;26987;59.928;30.306;2022-10-23T05:36:05;100511.31;;;4.71;94.25
41254;BME280;26987;59.928;30.306;2022-10-23T05:38:34;100507.63;;;4.72;94.19
41254;BME280;26987;59.928;30.306;2022-10-23T05:41:09;100511.31;;;4.71;94.12
41254;BME280;26987;59.928;30.306;2022-10-23T05:43:37;100507.63;;;4.72;93.51
41254;BME280;26987;59.928;30.306;2022-10-23T05:46:11;100508.97;;;4.76;94.07
41254;BME280;26987;59.928;30.306;2022-10-23T05:49:14;100507.13;;;4.76;93.49
41254;BME280;26987;59.928;30.306;2022-10-23T05:52:12;100508.13;;;4.75;93.35
41254;BME280;26987;59.928;30.306;2022-10-23T05:54:50;100513.91;;;4.79;93.06
41254;BME280;26987;59.928;30.306;2022-10-23T05:57:53;100506.25;;;4.84;93.27
41254;BME280;26987;59.928;30.306;2022-10-23T06:00:39;100507.09;;;4.85;93.02
41254;BME280;26987;59.928;30.306;2022-10-23T06:03:28;100512.06;;;4.88;92.93
41254;BME280;26987;59.928;30.306;2022-10-23T06:05:56;100511.72;;;4.91;93.49
41254;BME280;26987;59.928;30.306;2022-10-23T06:08:34;100513.00;;;4.95;93.33
41254;BME280;26987;59.928;30.306;2022-10-23T06:11:06;100511.66;;;4.99;92.68
41254;BME280;26987;59.928;30.306;2022-10-23T06:13:35;100510.66;;;5.00;92.29
41254;BME280;26987;59.928;30.306;2022-10-23T06:16:14;100514.91;;;5.10;92.42
41254;BME280;26987;59.928;30.306;2022-10-23T06:18:44;100484.66;;;4.87;92.36
41254;BME280;26987;59.928;30.306;2022-10-23T06:21:15;100501.50;;;5.03;92.47
41254;BME280;26987;59.928;30.306;2022-10-23T06:23:45;100499.81;;;5.10;91.92
41254;BME280;26987;59.928;30.306;2022-10-23T06:26:15;100502.09;;;5.13;91.91
41254;BME280;26987;59.928;30.306;2022-10-23T06:28:57;100508.06;;;5.15;92.41
41254;BME280;26987;59.928;30.306;2022-10-23T06:31:26;100512.84;;;5.20;92.41
41254;BME280;26987;59.928;30.306;2022-10-23T06:33:58;100508.81;;;5.24;91.83
41254;BME280;26987;59.928;30.306;2022-10-23T06:36:28;100501.03;;;5.23;91.38
41254;BME280;26987;59.928;30.306;2022-10-23T06:39:07;100499.34;;;5.30;91.56
41254;BME280;26987;59.928;30.306;2022-10-23T06:41:52;100493.28;;;5.36;91.11
41254;BME280;26987;59.928;30.306;2022-10-23T06:44:52;100490.75;;;5.43;90.90
41254;BME280;26987;59.928;30.306;2022-10-23T06:47:49;100486.09;;;5.45;90.80
41254;BME280;26987;59.928;30.306;2022-10-23T06:50:37;100480.78;;;5.45;90.67
41254;BME280;26987;59.928;30.306;2022-10-23T06:53:10;100489.00;;;5.74;91.09
41254;BME280;26987;59.928;30.306;2022-10-23T06:55:45;100490.13;;;5.56;89.68
41254;BME280;26987;59.928;30.306;2022-10-23T06:58:13;100480.69;;;5.53;89.63
41254;BME280;26987;59.928;30.306;2022-10-23T07:00:59;100474.16;;;5.56;90.11
41254;BME280;26987;59.928;30.306;2022-10-23T07:03:28;100473.53;;;5.54;89.53
41254;BME280;26987;59.928;30.306;2022-10-23T07:06:00;100465.03;;;5.59;90.01
41254;BME280;26987;59.928;30.306;2022-10-23T07:08:29;100448.94;;;5.52;89.62
41254;BME280;26987;59.928;30.306;2022-10-23T07:11:02;100462.47;;;5.65;89.17
41254;BME280;26987;59.928;30.306;2022-10-23T07:13:30;100452.66;;;5.66;89.61
41254;BME280;26987;59.928;30.306;2022-10-23T07:16:11;100459.44;;;5.68;88.75
41254;BME280;26987;59.928;30.306;2022-10-23T07:18:40;100457.44;;;5.71;88.78
41254;BME280;26987;59.928;30.306;2022-10-23T07:21:44;100449.72;;;5.76;88.67
41254;BME280;26987;59.928;30.306;2022-10-23T07:24:34;100447.91;;;5.76;88.64
41254;BME280;26987;59.928;30.306;2022-10-23T07:27:13;100454.31;;;5.82;88.26
41254;BME280;26987;59.928;30.306;2022-10-23T07:29:41;100450.00;;;5.81;88.44
41254;BME280;26987;59.928;30.306;2022-10-23T07:32:09;100451.47;;;5.84;88.08
41254;BME280;26987;59.928;30.306;2022-10-23T07:34:59;100442.59;;;5.91;88.29
41254;BME280;26987;59.928;30.306;2022-10-23T07:37:32;100445.50;;;5.97;88.05
41254;BME280;26987;59.928;30.306;2022-10-23T07:40:03;100442.66;;;5.98;87.71
41254;BME280;26987;59.928;30.306;2022-10-23T07:42:35;100452.13;;;6.01;87.97
41254;BME280;26987;59.928;30.306;2022-10-23T07:45:05;100450.47;;;6.00;87.99
41254;BME280;26987;59.928;30.306;2022-10-23T07:47:36;100441.78;;;6.06;87.64
41254;BME280;26987;59.928;30.306;2022-10-23T07:50:04;100447.75;;;6.08;87.52
41254;BME280;26987;59.928;30.306;2022-10-23T07:52:35;100445.16;;;6.15;87.60
41254;BME280;26987;59.928;30.306;2022-10-23T07:55:15;100442.78;;;6.20;87.19
41254;BME280;26987;59.928;30.306;2022-10-23T07:57:50;100447.19;;;6.28;86.97
41254;BME280;26987;59.928;30.306;2022-10-23T08:00:30;100447.25;;;6.35;86.91
41254;BME280;26987;59.928;30.306;2022-10-23T08:03:14;100445.50;;;6.42;86.87
41254;BME280;26987;59.928;30.306;2022-10-23T08:05:43;100450.28;;;6.47;86.72
41254;BME280;26987;59.928;30.306;2022-10-23T08:08:12;100451.19;;;6.54;86.12
41254;BME280;26987;59.928;30.306;2022-10-23T08:10:44;100449.53;;;6.53;85.94
41254;BME280;26987;59.928;30.306;2022-10-23T08:13:18;100442.56;;;6.52;86.00
41254;BME280;26987;59.928;30.306;2022-10-23T08:15:59;100450.81;;;6.57;85.92
41254;BME280;26987;59.928;30.306;2022-10-23T08:18:48;100454.13;;;6.59;85.94
41254;BME280;26987;59.928;30.306;2022-10-23T08:21:18;100460.06;;;6.61;85.87
41254;BME280;26987;59.928;30.306;2022-10-23T08:23:54;100453.00;;;6.68;86.10
41254;BME280;26987;59.928;30.306;2022-10-23T08:26:23;100456.28;;;6.71;85.59
41254;BME280;26987;59.928;30.306;2022-10-23T08:28:57;100453.91;;;6.76;85.94
41254;BME280;26987;59.928;30.306;2022-10-23T08:31:27;100425.44;;;6.61;85.94
41254;BME280;26987;59.928;30.306;2022-10-23T08:34:17;100454.31;;;6.79;85.93
41254;BME280;26987;59.928;30.306;2022-10-23T08:36:48;100461.75;;;6.84;85.54
41254;BME280;26987;59.928;30.306;2022-10-23T08:39:18;100461.56;;;6.86;85.77
41254;BME280;26987;59.928;30.306;2022-10-23T08:42:23;100459.97;;;6.91;85.63
41254;BME280;26987;59.928;30.306;2022-10-23T08:44:58;100457.97;;;6.93;86.08
41254;BME280;26987;59.928;30.306;2022-10-23T08:47:37;100456.94;;;6.94;85.67
41254;BME280;26987;59.928;30.306;2022-10-23T08:50:27;100457.41;;;6.98;85.91
41254;BME280;26987;59.928;30.306;2022-10-23T08:53:02;100457.22;;;7.00;86.08
41254;BME280;26987;59.928;30.306;2022-10-23T08:55:35;100457.41;;;6.98;86.46
41254;BME280;26987;59.928;30.306;2022-10-23T08:58:06;100460.25;;;6.97;86.48
41254;BME280;26987;59.928;30.306;2022-10-23T09:00:40;100459.41;;;6.96;86.69
41254;BME280;26987;59.928;30.306;2022-10-23T09:03:10;100457.59;;;6.97;86.97
41254;BME280;26987;59.928;30.306;2022-10-23T09:06:00;100444.31;;;7.03;87.08
41254;BME280;26987;59.928;30.306;2022-10-23T09:08:40;100451.13;;;7.06;87.28
41254;BME280;26987;59.928;30.306;2022-10-23T09:11:17;100450.59;;;7.17;87.38
41254;BME280;26987;59.928;30.306;2022-10-23T09:14:14;100443.34;;;7.33;87.29
41254;BME280;26987;59.928;30.306;2022-10-23T09:17:00;100446.44;;;7.37;86.59
41254;BME280;26987;59.928;30.306;2022-10-23T09:19:34;100443.34;;;7.33;86.67
41254;BME280;26987;59.928;30.306;2022-10-23T09:22:02;100445.66;;;7.36;86.56
41254;BME280;26987;59.928;30.306;2022-10-23T09:24:32;100440.69;;;7.33;86.61
41254;BME280;26987;59.928;30.306;2022-10-23T09:27:01;100444.63;;;7.37;86.90
41254;BME280;26987;59.928;30.306;2022-10-23T09:29:31;100441.56;;;7.40;86.83
41254;BME280;26987;59.928;30.306;2022-10-23T09:32:03;100440.16;;;7.44;87.09
41254;BME280;26987;59.928;30.306;2022-10-23T09:34:32;100440.59;;;7.48;87.03
41254;BME280;26987;59.928;30.306;2022-10-23T09:37:02;100432.31;;;7.36;86.96
41254;BME280;26987;59.928;30.306;2022-10-23T09:39:32;100446.53;;;7.43;87.28
41254;BME280;26987;59.928;30.306;2022-10-23T09:42:19;100444.72;;;7.51;87.67
41254;BME280;26987;59.928;30.306;2022-10-23T09:44:48;100433.41;;;7.49;87.32
41254;BME280;26987;59.928;30.306;2022-10-23T09:47:18;100440.84;;;7.53;87.38
41254;BME280;26987;59.928;30.306;2022-10-23T09:49:49;100439.66;;;7.56;87.59
41254;BME280;26987;59.928;30.306;2022-10-23T09:52:30;100441.38;;;7.70;87.66
41254;BME280;26987;59.928;30.306;2022-10-23T09:55:14;100440.72;;;7.68;86.91
41254;BME280;26987;59.928;30.306;2022-10-23T09:57:46;100446.13;;;7.75;86.60
41254;BME280;26987;59.928;30.306;2022-10-23T10:00:17;100438.75;;;7.77;86.18
41254;BME280;26987;59.928;30.306;2022-10-23T10:02:55;100431.63;;;7.85;86.33
41254;BME280;26987;59.928;30.306;2022-10-23T10:05:36;100435.50;;;7.82;86.71
41254;BME280;26987;59.928;30.306;2022-10-23T10:08:16;100436.59;;;7.94;86.71
41254;BME280;26987;59.928;30.306;2022-10-23T10:10:50;100439.91;;;7.97;87.24
41254;BME280;26987;59.928;30.306;2022-10-23T10:13:34;100438.50;;;8.07;88.36
41254;BME280;26987;59.928;30.306;2022-10-23T10:16:07;100432.28;;;7.93;89.76
41254;BME280;26987;59.928;30.306;2022-10-23T10:18:41;100432.44;;;7.85;89.99
41254;BME280;26987;59.928;30.306;2022-10-23T10:21:14;100438.75;;;7.77;90.63
41254;BME280;26987;59.928;30.306;2022-10-23T10:23:49;100439.13;;;7.74;91.23
41254;BME280;26987;59.928;30.306;2022-10-23T10:26:31;100437.47;;;7.66;92.04
41254;BME280;26987;59.928;30.306;2022-10-23T10:29:16;100435.19;;;7.63;92.34
41254;BME280;26987;59.928;30.306;2022-10-23T10:32:01;100439.38;;;7.51;92.44
41254;BME280;26987;59.928;30.306;2022-10-23T10:34:39;100438.13;;;7.47;93.49
41254;BME280;26987;59.928;30.306;2022-10-23T10:37:19;100437.09;;;7.48;93.55
41254;BME280;26987;59.928;30.306;2022-10-23T10:39:56;100432.53;;;7.41;93.41
41254;BME280;26987;59.928;30.306;2022-10-23T10:42:40;100405.19;;;7.32;93.40
41254;BME280;26987;59.928;30.306;2022-10-23T10:45:25;100426.59;;;7.39;93.50
41254;BME280;26987;59.928;30.306;2022-10-23T10:48:13;100425.41;;;7.49;93.50
41254;BME280;26987;59.928;30.306;2022-10-23T10:51:06;100417.56;;;7.40;92.78
41254;BME280;26987;59.928;30.306;2022-10-23T10:54:03;100415.00;;;7.54;92.99
41254;BME280;26987;59.928;30.306;2022-10-23T10:56:38;100402.22;;;7.49;92.41
41254;BME280;26987;59.928;30.306;2022-10-23T10:59:15;100419.56;;;7.60;92.25
41254;BME280;26987;59.928;30.306;2022-10-23T11:01:51;100418.31;;;7.63;91.95
41254;BME280;26987;59.928;30.306;2022-10-23T11:04:30;100413.19;;;7.61;92.04
41254;BME280;26987;59.928;30.306;2022-10-23T11:07:04;100410.28;;;7.56;91.75
41254;BME280;26987;59.928;30.306;2022-10-23T11:09:33;100415.38;;;7.51;91.88
41254;BME280;26987;59.928;30.306;2022-10-23T11:12:01;100413.25;;;7.39;92.84
41254;BME280;26987;59.928;30.306;2022-10-23T11:14:31;100419.16;;;7.35;93.95
41254;BME280;26987;59.928;30.306;2022-10-23T11:17:04;100419.34;;;7.33;94.58
41254;BME280;26987;59.928;30.306;2022-10-23T11:19:38;100420.34;;;7.32;94.74
41254;BME280;26987;59.928;30.306;2022-10-23T11:22:14;100421.16;;;7.26;94.55
41254;BME280;26987;59.928;30.306;2022-10-23T11:25:04;100415.63;;;7.27;94.78
41254;BME280;26987;59.928;30.306;2022-10-23T11:27:48;100412.53;;;7.30;95.24
41254;BME280;26987;59.928;30.306;2022-10-23T11:30:23;100414.59;;;7.28;94.88
41254;BME280;26987;59.928;30.306;2022-10-23T11:33:37;100406.88;;;7.40;95.31
41254;BME280;26987;59.928;30.306;2022-10-23T11:36:15;100406.63;;;7.35;95.54
41254;BME280;26987;59.928;30.306;2022-10-23T11:38:46;100398.81;;;7.34;96.17
41254;BME280;26987;59.928;30.306;2022-10-23T11:41:18;100401.06;;;7.30;97.48
41254;BME280;26987;59.928;30.306;2022-10-23T11:43:49;100392.97;;;7.16;97.58
41254;BME280;26987;59.928;30.306;2022-10-23T11:46:32;100397.38;;;7.31;98.26
41254;BME280;26987;59.928;30.306;2022-10-23T11:49:03;100402.88;;;7.23;98.14
41254;BME280;26987;59.928;30.306;2022-10-23T11:51:32;100397.53;;;7.23;98.19
41254;BME280;26987;59.928;30.306;2022-10-23T11:54:05;100397.75;;;7.28;98.25
41254;BME280;26987;59.928;30.306;2022-10-23T11:56:33;100400.22;;;7.29;98.92
41254;BME280;26987;59.928;30.306;2022-10-23T11:59:20;100391.28;;;7.37;99.30
41254;BME280;26987;59.928;30.306;2022-10-23T12:01:50;100395.72;;;7.30;99.60
41254;BME280;26987;59.928;30.306;2022-10-23T12:04:24;100384.88;;;7.31;99.86
41254;BME280;26987;59.928;30.306;2022-10-23T12:06:55;100388.75;;;7.29;100.00
41254;BME280;26987;59.928;30.306;2022-10-23T12:09:30;100374.78;;;7.27;100.00
41254;BME280;26987;59.928;30.306;2022-10-23T12:12:25;100386.31;;;7.34;100.00
41254;BME280;26987;59.928;30.306;2022-10-23T12:15:17;100382.41;;;7.30;100.00
41254;BME280;26987;59.928;30.306;2022-10-23T12:17:46;100390.69;;;7.13;100.00
41254;BME280;26987;59.928;30.306;2022-10-23T12:20:39;100387.84;;;7.22;100.00
41254;BME280;26987;59.928;30.306;2022-10-23T12:26:43;100384.59;;;7.19;100.00
41254;BME280;26987;59.928;30.306;2022-10-23T12:29:23;100380.31;;;7.03;100.00
41254;BME280;26987;59.928;30.306;2022-10-23T12:32:01;100383.81;;;7.04;100.00
41254;BME280;26987;59.928;30.306;2022-10-23T12:34:42;100371.63;;;6.94;100.00
41254;BME280;26987;59.928;30.306;2022-10-23T12:37:29;100378.31;;;7.05;100.00
41254;BME280;26987;59.928;30.306;2022-10-23T12:40:06;100381.94;;;6.98;100.00
41254;BME280;26987;59.928;30.306;2022-10-23T12:42:35;100384.97;;;6.94;100.00
41254;BME280;26987;59.928;30.306;2022-10-23T12:45:14;100377.22;;;7.00;100.00
41254;BME280;26987;59.928;30.306;2022-10-23T12:47:44;100373.69;;;6.92;100.00
41254;BME280;26987;59.928;30.306;2022-10-23T12:50:16;100373.50;;;6.94;100.00
41254;BME280;26987;59.928;30.306;2022-10-23T12:52:53;100373.72;;;6.99;100.00
41254;BME280;26987;59.928;30.306;2022-10-23T12:55:23;100381.88;;;6.91;100.00
41254;BME280;26987;59.928;30.306;2022-10-23T12:57:52;100377.72;;;6.88;100.00
41254;BME280;26987;59.928;30.306;2022-10-23T13:00:21;100376.94;;;6.88;100.00
41254;BME280;26987;59.928;30.306;2022-10-23T13:02:59;100372.31;;;7.03;100.00
41254;BME280;26987;59.928;30.306;2022-10-23T13:05:29;100380.97;;;7.05;100.00
41254;BME280;26987;59.928;30.306;2022-10-23T13:08:01;100380.00;;;7.13;100.00
41254;BME280;26987;59.928;30.306;2022-10-23T13:10:44;100381.72;;;7.21;100.00
41254;BME280;26987;59.928;30.306;2022-10-23T13:13:21;100378.47;;;7.26;100.00
41254;BME280;26987;59.928;30.306;2022-10-23T13:15:49;100376.69;;;7.33;100.00
41254;BME280;26987;59.928;30.306;2022-10-23T13:18:18;100384.91;;;7.38;100.00
41254;BME280;26987;59.928;30.306;2022-10-23T13:20:56;100390.78;;;7.55;100.00
41254;BME280;26987;59.928;30.306;2022-10-23T13:23:28;100390.97;;;7.54;100.00
41254;BME280;26987;59.928;30.306;2022-10-23T13:25:59;100399.81;;;7.54;100.00
41254;BME280;26987;59.928;30.306;2022-10-23T13:28:28;100391.81;;;7.54;100.00
41254;BME280;26987;59.928;30.306;2022-10-23T13:31:21;100391.44;;;7.64;100.00